sensor_id;sensor_type;location;lat;lon;timestamp;pressure;altitude;pressure_sealevel;temperature;humidity
6433;BME280;3249;42.690;23.260;2023-03-03T00:00:12;94332.75;;;3.49;100.00
6433;BME280;3249;42.690;23.260;2023-03-03T00:02:42;94345.06;;;3.60;100.00
6433;BME280;3249;42.690;23.260;2023-03-03T00:05:10;94331.78;;;3.50;100.00
6433;BME280;3249;42.690;23.260;2023-03-03T00:07:42;94351.47;;;3.56;100.00
6433;BME280;3249;42.690;23.260;2023-03-03T00:10:13;94344.22;;;3.45;100.00
6433;BME280;3249;42.690;23.260;2023-03-03T00:12:46;94325.78;;;3.43;100.00
6433;BME280;3249;42.690;23.260;2023-03-03T00:15:20;94333.88;;;3.46;100.00
6433;BME280;3249;42.690;23.260;2023-03-03T00:17:50;94335.81;;;3.59;100.00
6433;BME280;3249;42.690;23.260;2023-03-03T00:20:29;94314.19;;;3.40;100.00
6433;BME280;3249;42.690;23.260;2023-03-03T00:23:12;94339.97;;;3.60;100.00
6433;BME280;3249;42.690;23.260;2023-03-03T00:25:43;94292.75;;;3.20;100.00
6433;BME280;3249;42.690;23.260;2023-03-03T00:28:21;94280.25;;;3.11;100.00
6433;BME280;3249;42.690;23.260;2023-03-03T00:30:54;94326.94;;;3.55;100.00
6433;BME280;3249;42.690;23.260;2023-03-03T00:33:28;94338.03;;;3.62;100.00
6433;BME280;3249;42.690;23.260;2023-03-03T00:36:12;94316.91;;;3.39;100.00
6433;BME280;3249;42.690;23.260;2023-03-03T00:38:52;94320.41;;;3.38;100.00
6433;BME280;3249;42.690;23.260;2023-03-03T00:41:23;94289.94;;;3.15;100.00
6433;BME280;3249;42.690;23.260;2023-03-03T00:43:53;94322.91;;;3.46;100.00
6433;BME280;3249;42.690;23.260;2023-03-03T00:46:25;94323.31;;;3.72;100.00
6433;BME280;3249;42.690;23.260;2023-03-03T00:48:54;94310.22;;;3.75;100.00
6433;BME280;3249;42.690;23.260;2023-03-03T00:51:27;94307.81;;;3.59;100.00
6433;BME280;3249;42.690;23.260;2023-03-03T00:53:57;94304.59;;;3.50;100.00
6433;BME280;3249;42.690;23.260;2023-03-03T00:56:26;94273.25;;;3.50;100.00
6433;BME280;3249;42.690;23.260;2023-03-03T00:58:56;94300.66;;;3.77;100.00
6433;BME280;3249;42.690;23.260;2023-03-03T01:01:30;94300.41;;;3.72;100.00
6433;BME280;3249;42.690;23.260;2023-03-03T01:03:59;94288.38;;;3.66;100.00
6433;BME280;3249;42.690;23.260;2023-03-03T01:06:28;94281.63;;;3.58;100.00
6433;BME280;3249;42.690;23.260;2023-03-03T01:08:58;94284.84;;;3.67;100.00
6433;BME280;3249;42.690;23.260;2023-03-03T01:11:27;94283.91;;;3.82;100.00
6433;BME280;3249;42.690;23.260;2023-03-03T01:13:56;94283.75;;;3.84;100.00
6433;BME280;3249;42.690;23.260;2023-03-03T01:16:26;94288.38;;;3.66;100.00
6433;BME280;3249;42.690;23.260;2023-03-03T01:18:57;94286.00;;;3.79;100.00
6433;BME280;3249;42.690;23.260;2023-03-03T01:21:26;94286.88;;;3.86;100.00
6433;BME280;3249;42.690;23.260;2023-03-03T01:23:55;94270.91;;;3.77;100.00
6433;BME280;3249;42.690;23.260;2023-03-03T01:26:25;94264.06;;;3.78;100.00
6433;BME280;3249;42.690;23.260;2023-03-03T01:28:54;94289.50;;;4.07;100.00
6433;BME280;3249;42.690;23.260;2023-03-03T01:31:23;94298.13;;;4.06;100.00
6433;BME280;3249;42.690;23.260;2023-03-03T01:34:09;94240.47;;;3.84;100.00
6433;BME280;3249;42.690;23.260;2023-03-03T01:36:38;94296.38;;;4.21;100.00
6433;BME280;3249;42.690;23.260;2023-03-03T01:39:07;94284.97;;;4.02;100.00
6433;BME280;3249;42.690;23.260;2023-03-03T01:41:38;94286.97;;;3.78;100.00
6433;BME280;3249;42.690;23.260;2023-03-03T01:44:11;94276.38;;;3.74;100.00
6433;BME280;3249;42.690;23.260;2023-03-03T01:46:49;94274.75;;;3.73;100.00
6433;BME280;3249;42.690;23.260;2023-03-03T01:49:25;94274.50;;;3.68;100.00
6433;BME280;3249;42.690;23.260;2023-03-03T01:51:59;94274.31;;;3.70;100.00
6433;BME280;3249;42.690;23.260;2023-03-03T01:54:32;94273.72;;;3.68;100.00
6433;BME280;3249;42.690;23.260;2023-03-03T01:57:05;94268.91;;;3.73;100.00
6433;BME280;3249;42.690;23.260;2023-03-03T01:59:41;94268.34;;;3.63;100.00
6433;BME280;3249;42.690;23.260;2023-03-03T02:02:12;94270.44;;;3.45;100.00
6433;BME280;3249;42.690;23.260;2023-03-03T02:04:44;94271.59;;;3.42;100.00
6433;BME280;3249;42.690;23.260;2023-03-03T02:07:14;94262.75;;;3.53;100.00
6433;BME280;3249;42.690;23.260;2023-03-03T02:09:51;94253.34;;;3.53;100.00
6433;BME280;3249;42.690;23.260;2023-03-03T02:12:29;94257.31;;;3.56;100.00
6433;BME280;3249;42.690;23.260;2023-03-03T02:15:00;94270.81;;;3.71;100.00
6433;BME280;3249;42.690;23.260;2023-03-03T02:17:29;94268.72;;;3.60;100.00
6433;BME280;3249;42.690;23.260;2023-03-03T02:20:09;94270.44;;;3.45;100.00
6433;BME280;3249;42.690;23.260;2023-03-03T02:22:43;94271.94;;;3.54;100.00
6433;BME280;3249;42.690;23.260;2023-03-03T02:25:23;94235.00;;;3.43;100.00
6433;BME280;3249;42.690;23.260;2023-03-03T02:27:58;94271.53;;;3.65;100.00
6433;BME280;3249;42.690;23.260;2023-03-03T02:30:28;94269.94;;;3.64;100.00
6433;BME280;3249;42.690;23.260;2023-03-03T02:32:57;94268.91;;;3.73;100.00
6433;BME280;3249;42.690;23.260;2023-03-03T02:35:32;94255.53;;;3.56;100.00
6433;BME280;3249;42.690;23.260;2023-03-03T02:38:10;94270.03;;;3.70;100.00
6433;BME280;3249;42.690;23.260;2023-03-03T02:40:46;94273.09;;;3.66;100.00
6433;BME280;3249;42.690;23.260;2023-03-03T02:43:23;94271.53;;;3.65;100.00
6433;BME280;3249;42.690;23.260;2023-03-03T02:45:54;94271.28;;;3.89;100.00
6433;BME280;3249;42.690;23.260;2023-03-03T02:48:24;94270.22;;;3.98;100.00
6433;BME280;3249;42.690;23.260;2023-03-03T02:50:53;94268.19;;;4.08;100.00
6433;BME280;3249;42.690;23.260;2023-03-03T02:53:22;94270.22;;;3.83;100.00
6433;BME280;3249;42.690;23.260;2023-03-03T02:55:52;94266.25;;;3.81;100.00
6433;BME280;3249;42.690;23.260;2023-03-03T02:58:24;94246.88;;;3.80;100.00
6433;BME280;3249;42.690;23.260;2023-03-03T03:00:53;94258.81;;;3.79;100.00
6433;BME280;3249;42.690;23.260;2023-03-03T03:03:22;94262.03;;;3.73;100.00
6433;BME280;3249;42.690;23.260;2023-03-03T03:05:52;94257.00;;;3.51;100.00
6433;BME280;3249;42.690;23.260;2023-03-03T03:08:23;94256.09;;;3.66;100.00
6433;BME280;3249;42.690;23.260;2023-03-03T03:10:52;94253.44;;;3.60;100.00
6433;BME280;3249;42.690;23.260;2023-03-03T03:13:25;94259.84;;;3.56;100.00
6433;BME280;3249;42.690;23.260;2023-03-03T03:15:55;94258.47;;;3.68;100.00
6433;BME280;3249;42.690;23.260;2023-03-03T03:18:25;94256.16;;;3.58;100.00
6433;BME280;3249;42.690;23.260;2023-03-03T03:20:56;94250.81;;;3.68;100.00
6433;BME280;3249;42.690;23.260;2023-03-03T03:23:25;94254.69;;;3.64;100.00
6433;BME280;3249;42.690;23.260;2023-03-03T03:25:55;94245.63;;;3.61;100.00
6433;BME280;3249;42.690;23.260;2023-03-03T03:28:30;94253.38;;;3.68;100.00
6433;BME280;3249;42.690;23.260;2023-03-03T03:31:00;94254.06;;;3.62;100.00
6433;BME280;3249;42.690;23.260;2023-03-03T03:33:32;94249.38;;;3.51;100.00
6433;BME280;3249;42.690;23.260;2023-03-03T03:36:03;94247.88;;;3.42;100.00
6433;BME280;3249;42.690;23.260;2023-03-03T03:38:33;94245.34;;;3.42;100.00
6433;BME280;3249;42.690;23.260;2023-03-03T03:41:06;94242.13;;;3.62;100.00
6433;BME280;3249;42.690;23.260;2023-03-03T03:43:38;94234.91;;;3.80;100.00
6433;BME280;3249;42.690;23.260;2023-03-03T03:46:07;94224.31;;;3.77;100.00
6433;BME280;3249;42.690;23.260;2023-03-03T03:48:37;94242.91;;;3.92;100.00
6433;BME280;3249;42.690;23.260;2023-03-03T03:51:09;94238.63;;;3.63;100.00
6433;BME280;3249;42.690;23.260;2023-03-03T03:53:40;94235.72;;;3.52;100.00
6433;BME280;3249;42.690;23.260;2023-03-03T03:56:09;94230.56;;;3.60;100.00
6433;BME280;3249;42.690;23.260;2023-03-03T03:58:44;94228.53;;;3.70;100.00
6433;BME280;3249;42.690;23.260;2023-03-03T04:01:14;94224.66;;;3.74;100.00
6433;BME280;3249;42.690;23.260;2023-03-03T04:03:48;94230.19;;;3.48;100.00
6433;BME280;3249;42.690;23.260;2023-03-03T04:06:20;94232.13;;;3.46;100.00
6433;BME280;3249;42.690;23.260;2023-03-03T04:08:51;94224.56;;;3.38;100.00
6433;BME280;3249;42.690;23.260;2023-03-03T04:11:22;94227.78;;;3.32;100.00
6433;BME280;3249;42.690;23.260;2023-03-03T04:13:54;94234.28;;;3.35;100.00
6433;BME280;3249;42.690;23.260;2023-03-03T04:16:23;94219.66;;;3.37;100.00
6433;BME280;3249;42.690;23.260;2023-03-03T04:18:52;94230.00;;;3.50;100.00
6433;BME280;3249;42.690;23.260;2023-03-03T04:21:21;94235.69;;;3.37;100.00
6433;BME280;3249;42.690;23.260;2023-03-03T04:23:53;94161.47;;;3.05;100.00
6433;BME280;3249;42.690;23.260;2023-03-03T04:26:22;94229.75;;;3.59;100.00
6433;BME280;3249;42.690;23.260;2023-03-03T04:28:54;94223.59;;;3.54;100.00
6433;BME280;3249;42.690;23.260;2023-03-03T04:31:24;94226.56;;;3.43;100.00
6433;BME280;3249;42.690;23.260;2023-03-03T04:33:53;94227.88;;;3.53;100.00
6433;BME280;3249;42.690;23.260;2023-03-03T04:36:23;94230.34;;;3.47;100.00
6433;BME280;3249;42.690;23.260;2023-03-03T04:38:52;94221.22;;;3.52;100.00
6433;BME280;3249;42.690;23.260;2023-03-03T04:41:22;94229.03;;;3.65;100.00
6433;BME280;3249;42.690;23.260;2023-03-03T04:43:54;94221.84;;;3.69;100.00
6433;BME280;3249;42.690;23.260;2023-03-03T04:46:23;94230.44;;;3.53;100.00
6433;BME280;3249;42.690;23.260;2023-03-03T04:48:52;94227.53;;;3.56;100.00
6433;BME280;3249;42.690;23.260;2023-03-03T04:51:22;94226.59;;;3.72;100.00
6433;BME280;3249;42.690;23.260;2023-03-03T04:53:51;94224.91;;;3.64;100.00
6433;BME280;3249;42.690;23.260;2023-03-03T04:56:20;94226.94;;;3.69;100.00
6433;BME280;3249;42.690;23.260;2023-03-03T04:58:50;94234.16;;;3.80;100.00
6433;BME280;3249;42.690;23.260;2023-03-03T05:01:21;94232.97;;;3.53;100.00
6433;BME280;3249;42.690;23.260;2023-03-03T05:03:50;94232.56;;;3.50;100.00
6433;BME280;3249;42.690;23.260;2023-03-03T05:06:20;94235.09;;;3.50;100.00
6433;BME280;3249;42.690;23.260;2023-03-03T05:08:49;94233.25;;;3.44;100.00
6433;BME280;3249;42.690;23.260;2023-03-03T05:11:18;94226.56;;;3.43;100.00
6433;BME280;3249;42.690;23.260;2023-03-03T05:13:47;94234.41;;;3.56;100.00
6433;BME280;3249;42.690;23.260;2023-03-03T05:16:16;94238.16;;;3.45;100.00
6433;BME280;3249;42.690;23.260;2023-03-03T05:18:47;94238.88;;;3.54;100.00
6433;BME280;3249;42.690;23.260;2023-03-03T05:21:16;94239.50;;;3.56;100.00
6433;BME280;3249;42.690;23.260;2023-03-03T05:23:45;94228.31;;;3.28;100.00
6433;BME280;3249;42.690;23.260;2023-03-03T05:26:14;94236.84;;;3.49;100.00
6433;BME280;3249;42.690;23.260;2023-03-03T05:28:44;94241.31;;;3.33;100.00
6433;BME280;3249;42.690;23.260;2023-03-03T05:31:12;94238.84;;;3.39;100.00
6433;BME280;3249;42.690;23.260;2023-03-03T05:33:41;94240.81;;;3.52;100.00
6433;BME280;3249;42.690;23.260;2023-03-03T05:36:14;94233.78;;;3.68;100.00
6433;BME280;3249;42.690;23.260;2023-03-03T05:38:47;94244.03;;;3.60;100.00
6433;BME280;3249;42.690;23.260;2023-03-03T05:41:16;94243.94;;;3.54;100.00
6433;BME280;3249;42.690;23.260;2023-03-03T05:43:45;94235.97;;;3.42;100.00
6433;BME280;3249;42.690;23.260;2023-03-03T05:46:16;94247.13;;;3.56;100.00
6433;BME280;3249;42.690;23.260;2023-03-03T05:48:45;94234.03;;;3.44;100.00
6433;BME280;3249;42.690;23.260;2023-03-03T05:51:22;94250.69;;;3.47;100.00
6433;BME280;3249;42.690;23.260;2023-03-03T05:53:51;94248.41;;;3.37;100.00
6433;BME280;3249;42.690;23.260;2023-03-03T05:56:20;94246.25;;;3.49;100.00
6433;BME280;3249;42.690;23.260;2023-03-03T05:58:49;94241.06;;;3.42;100.00
6433;BME280;3249;42.690;23.260;2023-03-03T06:01:17;94249.63;;;3.41;100.00
6433;BME280;3249;42.690;23.260;2023-03-03T06:03:47;94246.06;;;3.36;100.00
6433;BME280;3249;42.690;23.260;2023-03-03T06:06:16;94243.91;;;3.25;100.00
6433;BME280;3249;42.690;23.260;2023-03-03T06:08:47;94251.06;;;3.44;100.00
6433;BME280;3249;42.690;23.260;2023-03-03T06:11:18;94240.00;;;3.37;100.00
6433;BME280;3249;42.690;23.260;2023-03-03T06:13:51;94255.72;;;3.55;100.00
6433;BME280;3249;42.690;23.260;2023-03-03T06:16:20;94256.41;;;3.49;100.00
6433;BME280;3249;42.690;23.260;2023-03-03T06:18:49;94231.13;;;3.33;100.00
6433;BME280;3249;42.690;23.260;2023-03-03T06:21:18;94258.41;;;3.39;100.00
6433;BME280;3249;42.690;23.260;2023-03-03T06:23:49;94248.53;;;3.58;100.00
6433;BME280;3249;42.690;23.260;2023-03-03T06:26:19;94267.22;;;3.65;100.00
6433;BME280;3249;42.690;23.260;2023-03-03T06:28:48;94256.41;;;3.49;100.00
6433;BME280;3249;42.690;23.260;2023-03-03T06:31:20;94253.25;;;3.47;100.00
6433;BME280;3249;42.690;23.260;2023-03-03T06:33:48;94258.88;;;3.57;100.00
6433;BME280;3249;42.690;23.260;2023-03-03T06:36:18;94259.38;;;3.38;100.00
6433;BME280;3249;42.690;23.260;2023-03-03T06:38:51;94264.13;;;3.41;100.00
6433;BME280;3249;42.690;23.260;2023-03-03T06:41:20;94265.88;;;3.40;100.00
6433;BME280;3249;42.690;23.260;2023-03-03T06:43:49;94269.50;;;3.60;100.00
6433;BME280;3249;42.690;23.260;2023-03-03T06:46:18;94270.38;;;3.82;100.00
6433;BME280;3249;42.690;23.260;2023-03-03T06:48:48;94265.75;;;3.85;100.00
6433;BME280;3249;42.690;23.260;2023-03-03T06:51:33;94275.84;;;3.93;100.00
6433;BME280;3249;42.690;23.260;2023-03-03T06:54:10;94278.53;;;4.21;100.00
6433;BME280;3249;42.690;23.260;2023-03-03T06:56:41;94275.63;;;4.38;100.00
6433;BME280;3249;42.690;23.260;2023-03-03T06:59:12;94279.13;;;4.23;100.00
6433;BME280;3249;42.690;23.260;2023-03-03T07:01:43;94262.56;;;4.12;100.00
6433;BME280;3249;42.690;23.260;2023-03-03T07:04:23;94245.38;;;4.00;100.00
6433;BME280;3249;42.690;23.260;2023-03-03T07:06:54;94259.97;;;4.27;100.00
6433;BME280;3249;42.690;23.260;2023-03-03T07:09:29;94284.69;;;4.62;100.00
6433;BME280;3249;42.690;23.260;2023-03-03T07:12:00;94280.59;;;4.82;100.00
6433;BME280;3249;42.690;23.260;2023-03-03T07:14:30;94285.84;;;4.95;100.00
6433;BME280;3249;42.690;23.260;2023-03-03T07:17:00;94290.19;;;4.80;100.00
6433;BME280;3249;42.690;23.260;2023-03-03T07:19:35;94276.59;;;4.73;100.00
6433;BME280;3249;42.690;23.260;2023-03-03T07:22:14;94261.41;;;4.65;100.00
6433;BME280;3249;42.690;23.260;2023-03-03T07:24:48;94279.19;;;4.79;100.00
6433;BME280;3249;42.690;23.260;2023-03-03T07:27:28;94282.13;;;4.97;100.00
6433;BME280;3249;42.690;23.260;2023-03-03T07:30:15;94284.53;;;4.84;100.00
6433;BME280;3249;42.690;23.260;2023-03-03T07:32:46;94260.06;;;4.90;100.00
6433;BME280;3249;42.690;23.260;2023-03-03T07:35:28;94285.19;;;5.29;100.00
6433;BME280;3249;42.690;23.260;2023-03-03T07:38:01;94285.97;;;5.08;100.00
6433;BME280;3249;42.690;23.260;2023-03-03T07:40:35;94271.00;;;5.05;100.00
6433;BME280;3249;42.690;23.260;2023-03-03T07:43:24;94279.03;;;5.02;100.00
6433;BME280;3249;42.690;23.260;2023-03-03T07:46:01;94281.94;;;5.20;100.00
6433;BME280;3249;42.690;23.260;2023-03-03T07:48:36;94277.50;;;4.86;100.00
6433;BME280;3249;42.690;23.260;2023-03-03T07:51:12;94261.47;;;4.71;100.00
6433;BME280;3249;42.690;23.260;2023-03-03T07:53:43;94268.72;;;4.89;100.00
6433;BME280;3249;42.690;23.260;2023-03-03T07:56:25;94247.19;;;4.56;100.00
6433;BME280;3249;42.690;23.260;2023-03-03T07:58:56;94277.34;;;4.52;100.00
6433;BME280;3249;42.690;23.260;2023-03-03T08:01:35;94249.34;;;4.73;100.00
6433;BME280;3249;42.690;23.260;2023-03-03T08:04:19;94275.06;;;4.99;100.00
6433;BME280;3249;42.690;23.260;2023-03-03T08:06:58;94248.06;;;4.63;100.00
6433;BME280;3249;42.690;23.260;2023-03-03T08:09:42;94271.56;;;5.00;100.00
6433;BME280;3249;42.690;23.260;2023-03-03T08:12:33;94270.16;;;4.98;100.00
6433;BME280;3249;42.690;23.260;2023-03-03T08:15:21;94271.88;;;5.12;100.00
6433;BME280;3249;42.690;23.260;2023-03-03T08:17:52;94271.97;;;5.25;100.00
6433;BME280;3249;42.690;23.260;2023-03-03T08:20:40;94269.47;;;5.53;100.00
6433;BME280;3249;42.690;23.260;2023-03-03T08:23:10;94267.88;;;5.52;100.00
6433;BME280;3249;42.690;23.260;2023-03-03T08:25:39;94268.94;;;5.64;100.00
6433;BME280;3249;42.690;23.260;2023-03-03T08:28:12;94263.13;;;5.76;100.00
6433;BME280;3249;42.690;23.260;2023-03-03T08:30:42;94265.78;;;5.89;100.00
6433;BME280;3249;42.690;23.260;2023-03-03T08:33:13;94260.88;;;5.88;100.00
6433;BME280;3249;42.690;23.260;2023-03-03T08:35:43;94268.44;;;6.02;100.00
6433;BME280;3249;42.690;23.260;2023-03-03T08:38:13;94267.31;;;6.18;100.00
6433;BME280;3249;42.690;23.260;2023-03-03T08:40:43;94257.47;;;6.15;100.00
6433;BME280;3249;42.690;23.260;2023-03-03T08:43:15;94258.69;;;6.25;100.00
6433;BME280;3249;42.690;23.260;2023-03-03T08:45:47;94265.47;;;6.46;100.00
6433;BME280;3249;42.690;23.260;2023-03-03T08:48:17;94268.91;;;6.25;100.00
6433;BME280;3249;42.690;23.260;2023-03-03T08:50:47;94251.69;;;6.40;100.00
6433;BME280;3249;42.690;23.260;2023-03-03T08:53:18;94257.59;;;6.41;100.00
6433;BME280;3249;42.690;23.260;2023-03-03T08:55:51;94261.09;;;6.33;100.00
6433;BME280;3249;42.690;23.260;2023-03-03T08:58:25;94266.22;;;6.33;100.00
6433;BME280;3249;42.690;23.260;2023-03-03T09:00:54;94268.66;;;6.48;100.00
6433;BME280;3249;42.690;23.260;2023-03-03T09:03:24;94266.78;;;6.22;100.00
6433;BME280;3249;42.690;23.260;2023-03-03T09:05:53;94269.44;;;6.55;100.00
6433;BME280;3249;42.690;23.260;2023-03-03T09:08:22;94269.06;;;6.58;100.00
6433;BME280;3249;42.690;23.260;2023-03-03T09:10:53;94262.94;;;6.52;100.00
6433;BME280;3249;42.690;23.260;2023-03-03T09:13:28;94229.66;;;6.39;100.00
6433;BME280;3249;42.690;23.260;2023-03-03T09:15:58;94252.25;;;6.36;100.00
6433;BME280;3249;42.690;23.260;2023-03-03T09:18:31;94254.03;;;6.35;100.00
6433;BME280;3249;42.690;23.260;2023-03-03T09:21:16;94259.56;;;5.98;100.00
6433;BME280;3249;42.690;23.260;2023-03-03T09:23:50;94264.25;;;6.35;100.00
6433;BME280;3249;42.690;23.260;2023-03-03T09:26:26;94259.91;;;5.89;100.00
6433;BME280;3249;42.690;23.260;2023-03-03T09:29:14;94254.56;;;6.18;100.00
6433;BME280;3249;42.690;23.260;2023-03-03T09:31:47;94245.06;;;5.50;100.00
6433;BME280;3249;42.690;23.260;2023-03-03T09:34:20;94260.09;;;5.87;100.00
6433;BME280;3249;42.690;23.260;2023-03-03T09:36:52;94266.88;;;5.80;100.00
6433;BME280;3249;42.690;23.260;2023-03-03T09:39:22;94264.25;;;5.95;100.00
6433;BME280;3249;42.690;23.260;2023-03-03T09:45:08;94257.81;;;6.05;100.00
6433;BME280;3249;42.690;23.260;2023-03-03T09:47:59;94269.78;;;5.98;100.00
6433;BME280;3249;42.690;23.260;2023-03-03T09:50:37;94257.44;;;6.08;100.00
6433;BME280;3249;42.690;23.260;2023-03-03T09:53:18;94242.75;;;5.83;100.00
6433;BME280;3249;42.690;23.260;2023-03-03T09:55:58;94265.63;;;6.31;100.00
6433;BME280;3249;42.690;23.260;2023-03-03T09:58:39;94259.16;;;6.35;100.00
6433;BME280;3249;42.690;23.260;2023-03-03T10:07:20;94264.94;;;6.63;100.00
6433;BME280;3249;42.690;23.260;2023-03-03T10:12:49;94259.88;;;6.76;100.00
6433;BME280;3249;42.690;23.260;2023-03-03T10:15:31;94255.31;;;6.65;100.00
6433;BME280;3249;42.690;23.260;2023-03-03T10:18:17;94258.16;;;7.03;100.00
6433;BME280;3249;42.690;23.260;2023-03-03T10:21:01;94261.13;;;7.13;100.00
6433;BME280;3249;42.690;23.260;2023-03-03T10:23:50;94251.44;;;6.82;100.00
6433;BME280;3249;42.690;23.260;2023-03-03T10:26:30;94242.94;;;6.75;100.00
6433;BME280;3249;42.690;23.260;2023-03-03T10:29:21;94228.69;;;6.47;100.00
6433;BME280;3249;42.690;23.260;2023-03-03T10:32:03;94240.94;;;6.58;100.00
6433;BME280;3249;42.690;23.260;2023-03-03T10:34:58;94237.66;;;6.96;100.00
6433;BME280;3249;42.690;23.260;2023-03-03T10:37:39;94244.78;;;7.20;100.00
6433;BME280;3249;42.690;23.260;2023-03-03T10:40:18;94213.69;;;7.10;100.00
6433;BME280;3249;42.690;23.260;2023-03-03T10:43:05;94240.47;;;7.27;100.00
6433;BME280;3249;42.690;23.260;2023-03-03T10:49:05;94228.25;;;7.36;100.00
6433;BME280;3249;42.690;23.260;2023-03-03T10:51:46;94232.97;;;7.00;100.00
6433;BME280;3249;42.690;23.260;2023-03-03T10:54:34;94240.47;;;7.14;100.00
6433;BME280;3249;42.690;23.260;2023-03-03T10:57:16;94227.34;;;6.57;100.00
6433;BME280;3249;42.690;23.260;2023-03-03T10:59:59;94219.94;;;6.88;100.00
6433;BME280;3249;42.690;23.260;2023-03-03T11:02:39;94230.78;;;7.10;100.00
6433;BME280;3249;42.690;23.260;2023-03-03T11:05:21;94228.81;;;6.99;100.00
6433;BME280;3249;42.690;23.260;2023-03-03T11:08:01;94227.50;;;6.36;100.00
6433;BME280;3249;42.690;23.260;2023-03-03T11:10:47;94221.00;;;6.34;100.00
6433;BME280;3249;42.690;23.260;2023-03-03T11:13:24;94217.81;;;6.32;100.00
6433;BME280;3249;42.690;23.260;2023-03-03T11:16:22;94203.66;;;6.23;100.00
6433;BME280;3249;42.690;23.260;2023-03-03T11:19:09;94191.63;;;6.10;100.00
6433;BME280;3249;42.690;23.260;2023-03-03T11:21:45;94206.03;;;6.31;100.00
6433;BME280;3249;42.690;23.260;2023-03-03T11:24:29;94195.91;;;6.03;100.00
6433;BME280;3249;42.690;23.260;2023-03-03T11:27:15;94197.81;;;6.35;100.00
6433;BME280;3249;42.690;23.260;2023-03-03T11:30:01;94200.09;;;6.24;100.00
6433;BME280;3249;42.690;23.260;2023-03-03T11:32:38;94200.19;;;6.43;100.00
6433;BME280;3249;42.690;23.260;2023-03-03T11:35:21;94166.47;;;5.73;100.00
6433;BME280;3249;42.690;23.260;2023-03-03T11:38:04;94195.41;;;6.27;100.00
6433;BME280;3249;42.690;23.260;2023-03-03T11:40:44;94174.59;;;6.37;100.00
6433;BME280;3249;42.690;23.260;2023-03-03T11:43:19;94195.91;;;6.70;100.00
6433;BME280;3249;42.690;23.260;2023-03-03T11:45:52;94192.56;;;6.69;100.00
6433;BME280;3249;42.690;23.260;2023-03-03T11:48:29;94192.59;;;6.82;100.00
6433;BME280;3249;42.690;23.260;2023-03-03T11:51:05;94184.94;;;6.95;100.00
6433;BME280;3249;42.690;23.260;2023-03-03T11:56:33;94189.81;;;6.77;100.00
6433;BME280;3249;42.690;23.260;2023-03-03T11:59:29;94178.00;;;6.50;100.00
6433;BME280;3249;42.690;23.260;2023-03-03T12:02:08;94175.44;;;6.44;100.00
6433;BME280;3249;42.690;23.260;2023-03-03T12:04:45;94180.91;;;6.41;100.00
6433;BME280;3249;42.690;23.260;2023-03-03T12:07:25;94177.59;;;6.00;100.00
6433;BME280;3249;42.690;23.260;2023-03-03T12:10:05;94179.38;;;6.53;100.00
6433;BME280;3249;42.690;23.260;2023-03-03T12:12:41;94176.16;;;6.25;100.00
6433;BME280;3249;42.690;23.260;2023-03-03T12:15:23;94176.31;;;6.10;100.00
6433;BME280;3249;42.690;23.260;2023-03-03T12:18:08;94181.34;;;6.04;100.00
6433;BME280;3249;42.690;23.260;2023-03-03T12:20:50;94171.28;;;5.55;100.00
6433;BME280;3249;42.690;23.260;2023-03-03T12:23:45;94175.94;;;5.79;100.00
6433;BME280;3249;42.690;23.260;2023-03-03T12:26:26;94174.06;;;5.60;100.00
6433;BME280;3249;42.690;23.260;2023-03-03T12:29:05;94179.34;;;5.86;100.00
6433;BME280;3249;42.690;23.260;2023-03-03T12:31:43;94165.34;;;5.48;100.00
6433;BME280;3249;42.690;23.260;2023-03-03T12:34:23;94152.72;;;5.34;100.00
6433;BME280;3249;42.690;23.260;2023-03-03T12:37:01;94180.16;;;5.32;100.00
6433;BME280;3249;42.690;23.260;2023-03-03T12:39:43;94162.78;;;5.42;100.00
6433;BME280;3249;42.690;23.260;2023-03-03T12:42:23;94136.00;;;5.31;100.00
6433;BME280;3249;42.690;23.260;2023-03-03T12:45:04;94175.66;;;5.95;100.00
6433;BME280;3249;42.690;23.260;2023-03-03T12:47:37;94182.78;;;6.06;100.00
6433;BME280;3249;42.690;23.260;2023-03-03T12:50:24;94177.88;;;6.18;100.00
6433;BME280;3249;42.690;23.260;2023-03-03T12:53:01;94178.69;;;5.78;100.00
6433;BME280;3249;42.690;23.260;2023-03-03T12:55:39;94172.56;;;5.72;100.00
6433;BME280;3249;42.690;23.260;2023-03-03T12:58:18;94163.16;;;5.79;100.00
6433;BME280;3249;42.690;23.260;2023-03-03T13:01:03;94173.63;;;5.84;100.00
6433;BME280;3249;42.690;23.260;2023-03-03T13:03:44;94171.41;;;6.15;100.00
6433;BME280;3249;42.690;23.260;2023-03-03T13:06:24;94171.19;;;6.10;100.00
6433;BME280;3249;42.690;23.260;2023-03-03T13:09:02;94167.53;;;5.85;100.00
6433;BME280;3249;42.690;23.260;2023-03-03T13:11:45;94168.50;;;6.31;100.00
6433;BME280;3249;42.690;23.260;2023-03-03T13:14:25;94175.97;;;6.26;100.00
6433;BME280;3249;42.690;23.260;2023-03-03T13:17:14;94146.41;;;6.11;100.00
6433;BME280;3249;42.690;23.260;2023-03-03T13:19:51;94169.94;;;6.66;100.00
6433;BME280;3249;42.690;23.260;2023-03-03T13:22:37;94168.78;;;6.75;100.00
6433;BME280;3249;42.690;23.260;2023-03-03T13:28:10;94165.25;;;6.96;100.00
6433;BME280;3249;42.690;23.260;2023-03-03T13:30:47;94166.03;;;6.96;100.00
6433;BME280;3249;42.690;23.260;2023-03-03T13:33:25;94158.53;;;7.01;100.00
6433;BME280;3249;42.690;23.260;2023-03-03T13:35:57;94171.16;;;6.96;100.00
6433;BME280;3249;42.690;23.260;2023-03-03T13:38:30;94175.06;;;6.73;100.00
6433;BME280;3249;42.690;23.260;2023-03-03T13:41:05;94158.53;;;6.56;100.00
6433;BME280;3249;42.690;23.260;2023-03-03T13:43:42;94163.44;;;6.57;100.00
6433;BME280;3249;42.690;23.260;2023-03-03T13:46:17;94160.66;;;6.46;100.00
6433;BME280;3249;42.690;23.260;2023-03-03T13:51:53;94160.66;;;6.52;100.00
6433;BME280;3249;42.690;23.260;2023-03-03T13:54:47;94152.00;;;6.53;100.00
6433;BME280;3249;42.690;23.260;2023-03-03T13:57:32;94154.19;;;6.50;100.00
6433;BME280;3249;42.690;23.260;2023-03-03T14:00:15;94151.25;;;6.59;100.00
6433;BME280;3249;42.690;23.260;2023-03-03T14:03:06;94145.34;;;6.65;100.00
6433;BME280;3249;42.690;23.260;2023-03-03T14:05:44;94159.53;;;6.74;100.00
6433;BME280;3249;42.690;23.260;2023-03-03T14:08:25;94166.03;;;6.77;100.00
6433;BME280;3249;42.690;23.260;2023-03-03T14:11:07;94167.41;;;6.92;100.00
6433;BME280;3249;42.690;23.260;2023-03-03T14:13:45;94159.72;;;6.92;100.00